• Join FlightAware (Why Join?)
  • Login
  • US Flag 
05:54PM EDT


 

Airport Tracker/Info


-or-


 

Live Flight TrackerFlight Track Log ✈ AFL150 ✈ 20-Mar-2014 ✈ UUEE / SVO - MUHA / HAV

Flight Track Log - Related Links

Times and Time Zones

All times are in EDT time to prevent confusion due to time zone crossing. See the AFL150 flight status page for this flight to view local times or setup timezone preferences in your user account.

Time Position Orientation Groundspeed Altitude Reporting Facility
EDT Latitude Longitude Course Direction KTS MPH feet Rate Location/Type
06:03AM 56.1841 37.1027 316° Northwest  Level FlightAware Approximate
06:04AM 56.2641 36.9606 315° West  Level FlightAware Approximate
06:05AM 56.3440 36.8179 315° West  Level FlightAware Approximate
06:06AM 56.4238 36.6746 315° West  Level FlightAware Approximate
06:07AM 56.5033 36.5307 315° West  Level FlightAware Approximate
06:08AM 56.5827 36.3862 315° West  Level FlightAware Approximate
06:09AM 56.6619 36.2411 315° West  Level FlightAware Approximate
06:10AM 56.7410 36.0953 315° West  Level FlightAware Approximate
06:11AM 56.8199 35.9490 315° West  Level FlightAware Approximate
06:12AM 56.8986 35.8021 314° West  Level FlightAware Approximate
06:13AM 56.9771 35.6545 314° West  Level FlightAware Approximate
06:14AM 57.0555 35.5063 314° West  Level FlightAware Approximate
06:15AM 57.1337 35.3575 314° West  Level FlightAware Approximate
06:16AM 57.2117 35.2080 314° West  Level FlightAware Approximate
06:17AM 57.2896 35.0580 314° West  Level FlightAware Approximate
06:18AM 57.3672 34.9072 314° West  Level FlightAware Approximate
06:19AM 57.4447 34.7559 314° West  Level FlightAware Approximate
06:20AM 57.5220 34.6039 313° West  Level FlightAware Approximate
06:21AM 57.5991 34.4512 313° West  Level FlightAware Approximate
06:22AM 57.6760 34.2980 313° West  Level FlightAware Approximate
06:23AM 57.6998 34.2472 312° West  Level FlightAware Approximate
06:24AM 57.7746 34.0899 312° West  Level FlightAware Approximate
06:25AM 57.8492 33.9318 312° West  Level FlightAware Approximate
06:26AM 57.9236 33.7732 311° West  Level FlightAware Approximate
06:27AM 57.9978 33.6138 311° West  Level FlightAware Approximate
06:28AM 58.0718 33.4538 311° West  Level FlightAware Approximate
06:29AM 58.1456 33.2932 311° West  Level FlightAware Approximate
06:30AM 58.2192 33.1318 311° West  Level FlightAware Approximate
06:31AM 58.2925 32.9698 311° West  Level FlightAware Approximate
06:32AM 58.3657 32.8072 311° West  Level FlightAware Approximate
06:33AM 58.4387 32.6438 311° West  Level FlightAware Approximate
06:34AM 58.5115 32.4798 310° West  Level FlightAware Approximate
06:35AM 58.5840 32.3151 310° West  Level FlightAware Approximate
06:36AM 58.6564 32.1497 310° West  Level FlightAware Approximate
06:36AM 56.4028 31.9162 288° West 393 452 36,000  Level FlightAware ADS-B (EVDA / DGP)
06:37AM 56.4371 31.7284 288° West 394 453 36,000  Level FlightAware ADS-B (EVDA / DGP)
06:38AM 56.4700 31.5453 288° West 389 448 36,000  Level FlightAware ADS-B (EVDA / DGP)
06:39AM 56.5036 31.3576 288° West 386 444 36,000  Level FlightAware ADS-B (EVDA / DGP)
06:40AM 56.5372 31.1717 291° West 383 441 36,000  Level FlightAware ADS-B (EVDA / DGP)
06:41AM 56.5895 30.9974 306° West 365 420 36,000  Level FlightAware ADS-B (EVDA / DGP)
06:42AM 56.6547 30.8564 311° West 360 414 36,000  Level FlightAware ADS-B (EVDA / DGP)
06:43AM 56.7194 30.7154 307° West 356 410 36,000  Level FlightAware ADS-B (EVDA / DGP)
06:44AM 56.7745 30.5681 304° West 356 410 36,000  Level FlightAware ADS-B (EVDA / DGP)
06:45AM 56.8297 30.4199 304° West 355 409 36,000  Level FlightAware ADS-B (EVDA / DGP)
06:46AM 56.8829 30.2758 304° West 355 409 36,000  Level FlightAware ADS-B (EVDA / DGP)
06:47AM 56.9402 30.1201 304° West 356 410 36,000  Level FlightAware ADS-B (EVDA / DGP)
06:48AM 56.9936 29.9734 304° West 353 406 36,000  Level FlightAware ADS-B (EVDA / DGP)
06:49AM 57.0449 29.8317 304° West 344 396 36,000  Level FlightAware ADS-B (EVDA / DGP)
06:50AM 57.0994 29.6804 304° West 341 392 36,000  Level FlightAware ADS-B (EVDA / DGP)
06:51AM 57.1493 29.5408 303° West 337 388 36,000  Level FlightAware ADS-B (EVDA / DGP)
06:52AM 57.2024 29.3916 303° West 336 387 36,000  Level FlightAware ADS-B (EVDA / DGP)
06:53AM 57.2534 29.2476 303° West 337 388 36,000  Level FlightAware ADS-B (EVDA / DGP)
06:54AM 57.3040 29.1039 303° West 334 384 36,000  Level FlightAware ADS-B (EVDA / DGP)
06:55AM 57.3538 28.9613 303° West 330 380 36,000  Level FlightAware ADS-B (EVDA / DGP)
06:56AM 57.4014 28.8245 303° West 326 375 36,000  Level FlightAware ADS-B (EVDA / DGP)
06:57AM 57.4509 28.6814 303° West 325 374 36,000  Level FlightAware ADS-B (EVDA / DGP)
06:58AM 57.4987 28.5425 302° West 325 374 36,000  Level FlightAware ADS-B (EVDA / DGP)
06:59AM 57.5462 28.4034 302° West 327 376 36,000  Level FlightAware ADS-B (EVDA / DGP)
07:00AM 57.5965 28.2556 302° West 328 377 36,000  Level FlightAware ADS-B (EVDA / DGP)
07:01AM 57.6437 28.1158 302° West 328 377 36,000  Level FlightAware ADS-B (EVDA / DGP)
07:02AM 57.6919 27.9727 302° West 327 376 36,000  Level FlightAware ADS-B (EVDA / DGP)
07:03AM 57.7410 27.8258 302° West 325 374 36,000  Level FlightAware ADS-B (EVDA / DGP)
07:04AM 57.7883 27.6834 302° West 325 374 36,000  Level FlightAware ADS-B (EVDA / DGP)
07:05AM 57.8347 27.5376 296° West 331 381 36,000  Level FlightAware ADS-B (EVDA / DGP)
07:06AM 57.8676 27.3765 291° West 334 384 36,000  Level FlightAware ADS-B (EVDA / DGP)
07:07AM 57.9008 27.2130 291° West 332 382 36,000  Level FlightAware ADS-B (EVDA / DGP)
07:08AM 57.9316 27.0606 291° West 331 381 36,000  Level FlightAware ADS-B (EVDA / DGP)
07:09AM 57.9651 26.8927 290° West 333 383 36,000  Level FlightAware ADS-B (EVDA / DGP)
07:10AM 58.0042 26.6951 290° West 333 383 36,000  Level FlightAware ADS-B (EVDA / DGP)
07:11AM 58.0295 26.5660 290° West 333 383 36,000  Level FlightAware ADS-B (EVDA / DGP)
07:12AM 58.0603 26.4081 290° West 334 384 36,000  Level FlightAware ADS-B (EVDA / DGP)
07:13AM 58.0930 26.2390 290° West 334 384 36,000  Level FlightAware ADS-B (EVDA / DGP)
07:14AM 58.1245 26.0744 290° West 335 386 36,000  Level FlightAware ADS-B (EVDA / DGP)
07:15AM 58.1556 25.9107 290° West 334 384 36,000  Level FlightAware ADS-B (EVDA / DGP)
07:16AM 58.1870 25.7440 290° West 335 386 36,000  Level FlightAware ADS-B (EVDA / DGP)
07:17AM 58.2174 25.5811 289° West 335 386 36,000  Level FlightAware ADS-B (EVDA / DGP)
07:18AM 58.2373 25.4738 289° West 336 387 36,000  Level FlightAware ADS-B (EVDA / DGP)
07:18AM 58.2641 25.3285 289° West 336 387 36,000  Level FlightAware ADS-B (EVDA / DGP)
07:20AM 58.3097 25.0783 289° West 336 387 36,000  Level FlightAware ADS-B (EVDA / DGP)
07:21AM 58.3197 25.0230 289° West 337 388 36,000  Level FlightAware ADS-B (EVDA / DGP)
07:21AM 58.3592 24.8026 289° West 339 390 36,000  Level FlightAware ADS-B (EVDA / DGP)
07:23AM 58.3970 24.5895 289° West 338 389 36,000  Level FlightAware ADS-B (EVDA / DGP)
07:24AM 58.4264 24.4200 286° West 343 395 36,000  Level FlightAware ADS-B (EVDA / DGP)
07:24AM 58.4299 24.3967 286° West 342 394 36,000  Level FlightAware ADS-B (EVDA / DGP)
07:46AM 58.9787 20.5296 288° West 351 404 36,000  Level FlightAware ADS-B (ESKB)
07:46AM 59.0055 20.3645 288° West 353 406 36,000  Level FlightAware ADS-B (ESKB)
07:47AM 59.0248 20.2449 287° West 354 407 36,000  Level FlightAware ADS-B (ESKB)
07:48AM 59.0427 20.1330 287° West 355 409 36,000  Level FlightAware ADS-B (ESKB)
07:48AM 59.0630 20.0049 287° West 355 409 36,000  Level FlightAware ADS-B (ESKB)
07:49AM 59.0827 19.8807 287° West 355 409 36,000  Level FlightAware ADS-B (ESKB)
07:50AM 59.1018 19.7587 287° West 355 409 36,000  Level FlightAware ADS-B (ESKB)
07:50AM 59.1205 19.6388 287° West 357 411 36,000  Level FlightAware ADS-B (ESKB)
07:51AM 59.1396 19.5151 287° West 357 411 36,000  Level FlightAware ADS-B (ESKB)
07:52AM 59.1580 19.3953 287° West 357 411 36,000  Level FlightAware ADS-B (ESKB)
07:52AM 59.1720 19.3036 287° West 357 411 36,000  Level FlightAware ADS-B (ESKB)
07:53AM 59.1955 19.1481 286° West 357 411 36,000  Level FlightAware ADS-B (ESKB)
07:54AM 59.2144 19.0224 286° West 357 411 36,000  Level FlightAware ADS-B (ESKB)
07:54AM 59.2319 18.9051 286° West 359 413 36,000  Level FlightAware ADS-B (ESKB)
07:55AM 59.2511 18.7752 286° West 360 414 36,000  Level FlightAware ADS-B (ESKB)
07:56AM 59.2695 18.6498 286° West 362 417 36,000  Level FlightAware ADS-B (ESKB)
07:56AM 59.2873 18.5277 286° West 364 419 36,000  Level FlightAware ADS-B (ESKB)
07:57AM 59.3060 18.3986 286° West 364 419 36,000  Level FlightAware ADS-B (ESKB)
07:58AM 59.3220 18.2874 286° West 364 419 36,000  Level FlightAware ADS-B (ESKB)
07:58AM 59.3417 18.1488 286° West 363 418 36,000  Level FlightAware ADS-B (ESKB)
07:59AM 59.3597 18.0216 285° West 363 418 36,000  Level FlightAware ADS-B (ESKB)
08:00AM 59.3763 17.9028 285° West 364 419 36,000  Level FlightAware ADS-B (ESKB)
08:00AM 59.3949 17.7687 285° West 365 420 36,000  Level FlightAware ADS-B (ESKB)
08:01AM 59.4126 17.6409 285° West 365 420 36,000  Level FlightAware ADS-B (ESKB)
08:02AM 59.4315 17.5031 285° West 366 421 36,000  Level FlightAware ADS-B (ESKB)
08:02AM 59.4491 17.3733 285° West 366 421 36,000  Level FlightAware ADS-B (ESKB)
08:03AM 59.4661 17.2460 285° West 366 421 36,000  Level FlightAware ADS-B (ESKB)
08:04AM 59.4830 17.1188 285° West 365 420 36,000  Level FlightAware ADS-B (ESKB)
08:04AM 59.4999 16.9913 285° West 364 419 36,000  Level FlightAware ADS-B (ESKB)
08:05AM 59.5158 16.8704 284° West 362 417 36,000  Level FlightAware ADS-B (ESKB)
08:06AM 59.5321 16.7451 284° West 364 419 36,000  Level FlightAware ADS-B (ESKB)
08:06AM 59.5499 16.6070 284° West 365 420 36,000  Level FlightAware ADS-B (ESKB)
08:07AM 59.5648 16.4901 284° West 367 422 36,000  Level FlightAware ADS-B (ESKB)
08:07AM 59.5713 16.4391 283° West 365 420 36,000  Level FlightAware ADS-B
08:08AM 59.5912 16.2814 284° West 369 425 36,000  Level FlightAware ADS-B (ESKB)
08:08AM 59.5952 16.2493 283° West 367 422 36,000  Level FlightAware ADS-B
08:09AM 59.6062 16.1616 284° West 370 426 36,000  Level FlightAware ADS-B (ESKB)
08:09AM 59.6106 16.1256 283° West 368 423 36,000  Level FlightAware ADS-B
08:09AM 59.6222 16.0328 284° West 370 426 36,000  Level FlightAware ADS-B (ESKB)
08:10AM 59.6385 15.8999 284° West 371 427 36,000  Level FlightAware ADS-B (ESKB)
08:11AM 59.6556 15.7595 284° West 372 428 36,000  Level FlightAware ADS-B (ESKB)
08:11AM 59.6617 15.7087 282° West 372 428 36,000  Level FlightAware ADS-B
08:12AM 59.6791 15.5634 283° West 373 429 36,000  Level FlightAware ADS-B (ESKB)
08:12AM 59.6949 15.4307 283° West 374 430 36,000  Level FlightAware ADS-B (ESKB)
08:13AM 59.7095 15.3067 283° West 374 430 36,000  Level FlightAware ADS-B (ESKB)
08:14AM 59.7393 15.0507 283° West 374 430 36,000  Level FlightAware ADS-B
08:15AM 59.7541 14.9209 283° West 375 432 36,000  Level FlightAware ADS-B
08:16AM 59.7749 14.7373 283° West 373 429 36,000  Level FlightAware ADS-B
08:17AM 59.7949 14.5584 282° West 373 429 36,000  Level FlightAware ADS-B
08:18AM 59.8163 14.3637 282° West 374 430 36,000  Level FlightAware ADS-B
08:18AM 59.8315 14.2247 282° West 374 430 36,000  Level FlightAware ADS-B
08:19AM 59.8466 14.0836 281° West 372 428 36,000  Level FlightAware ADS-B
08:20AM 59.8622 13.9373 281° West 370 426 36,000  Level FlightAware ADS-B
08:21AM 59.8873 13.6981 280° West 370 426 36,000  Level FlightAware ADS-B
08:22AM 59.9035 13.5404 280° West 369 425 36,000  Level FlightAware ADS-B
08:23AM 59.9165 13.4139 280° West 369 425 36,000  Level FlightAware ADS-B
08:23AM 59.9285 13.2952 280° West 369 425 36,000  Level FlightAware ADS-B
08:24AM 59.9396 13.1834 280° West 371 427 36,000  Level FlightAware ADS-B
08:24AM 59.9494 13.0845 280° West 372 428 36,000  Level FlightAware ADS-B
08:25AM 59.9619 12.9576 280° West 375 432 36,000  Level FlightAware ADS-B
08:25AM 59.9726 12.8475 280° West 375 432 36,000  Level FlightAware ADS-B
08:26AM 59.9906 12.6587 280° West 376 433 36,000  Level FlightAware ADS-B
08:27AM 60.0012 12.5323 278° West 374 430 36,000  Level FlightAware ADS-B
08:27AM 60.0113 12.4129 281° West 376 433 36,000  Level FlightAware ADS-B
08:28AM 60.0303 12.2742 286° West 376 433 36,000  Level FlightAware ADS-B
08:29AM 60.0530 12.1201 285° West 376 433 36,000  Level FlightAware ADS-B
08:30AM 60.0746 11.9720 285° West 377 434 36,000  Level FlightAware ADS-B
08:30AM 60.0942 11.8364 285° West 378 435 36,000  Level FlightAware ADS-B
08:31AM 60.1135 11.7018 285° West 377 434 36,000  Level FlightAware ADS-B
08:32AM 60.1339 11.5580 285° West 378 435 36,000  Level FlightAware ADS-B
08:32AM 60.1498 11.4445 285° West 378 435 36,000  Level FlightAware ADS-B
08:33AM 60.1701 11.2992 286° West 381 438 36,000  Level FlightAware ADS-B
08:34AM 60.1912 11.1470 286° West 381 438 36,000  Level FlightAware ADS-B
08:36AM 60.2434 10.7455 285° West  Level Estimated
08:37AM 60.2714 10.5259 285° West  Level Estimated
08:38AM 60.2990 10.3059 284° West  Level Estimated
08:39AM 60.3263 10.0856 284° West  Level Estimated
08:40AM 60.3532 9.8649 284° West  Level Estimated
08:41AM 60.3797 9.6439 284° West  Level Estimated
08:42AM 60.4059 9.4225 284° West  Level Estimated
08:43AM 60.4317 9.2007 283° West  Level Estimated
08:44AM 60.4571 8.9786 283° West  Level Estimated
08:45AM 60.4822 8.7561 283° West  Level Estimated
08:46AM 60.5069 8.5333 283° West  Level Estimated
08:47AM 60.5312 8.3102 283° West  Level Estimated
08:48AM 60.5551 8.0867 282° West  Level Estimated
08:49AM 60.5787 7.8629 282° West  Level Estimated
08:50AM 60.6019 7.6388 282° West  Level Estimated
08:51AM 60.6247 7.4144 282° West  Level Estimated
08:52AM 60.6472 7.1896 282° West  Level Estimated
08:53AM 60.6692 6.9646 281° West  Level Estimated
08:54AM 60.6909 6.7392 281° West  Level Estimated
08:55AM 60.7122 6.5135 281° West  Level Estimated
08:56AM 60.7332 6.2875 281° West  Level Estimated
08:57AM 60.7537 6.0613 281° West  Level Estimated
08:58AM 60.7739 5.8347 280° West  Level Estimated
08:59AM 60.7937 5.6079 280° West  Level Estimated
09:00AM 60.8131 5.3808 280° West  Level Estimated
09:01AM 60.8321 5.1534 280° West  Level Estimated
09:02AM 60.8507 4.9257 280° West  Level Estimated
09:03AM 60.8690 4.6978 279° West  Level Estimated
09:04AM 60.8868 4.4697 279° West  Level Estimated
09:05AM 60.9043 4.2412 279° West  Level Estimated
09:06AM 60.9214 4.0126 279° West  Level Estimated
09:07AM 60.9381 3.7836 279° West  Level Estimated
09:08AM 60.9544 3.5545 278° West  Level Estimated
09:09AM 60.9703 3.3251 278° West  Level Estimated
09:10AM 60.9859 3.0955 278° West  Level Estimated
09:11AM 61.0010 2.8657 278° West  Level Estimated
09:12AM 61.0158 2.6356 278° West  Level Estimated
09:13AM 61.0301 2.4053 277° West  Level Estimated
09:14AM 61.0441 2.1749 277° West  Level Estimated
09:15AM 61.0577 1.9442 277° West  Level Estimated
09:16AM 61.0708 1.7134 277° West  Level Estimated
09:17AM 61.0836 1.4823 277° West  Level Estimated
09:18AM 61.0960 1.2511 276° West  Level Estimated
09:19AM 61.1080 1.0196 276° West  Level Estimated
09:20AM 61.1196 0.7881 276° West  Level Estimated
09:21AM 61.1308 0.5563 276° West  Level Estimated
09:22AM 61.1416 0.3244 276° West  Level Estimated
09:23AM 61.1520 0.0923 275° West  Level Estimated
09:24AM 61.1620 -0.1399 275° West  Level Estimated
09:25AM 61.1716 -0.3723 275° West  Level Estimated
09:26AM 61.1809 -0.6048 275° West  Level Estimated
09:27AM 61.1897 -0.8374 275° West  Level Estimated
09:28AM 61.1981 -1.0702 274° West  Level Estimated
09:29AM 61.2061 -1.3031 274° West  Level Estimated
09:30AM 61.2137 -1.5361 274° West  Level Estimated
09:31AM 61.2210 -1.7692 274° West  Level Estimated
09:32AM 61.2278 -2.0024 274° West  Level Estimated
09:33AM 61.2342 -2.2357 273° West  Level Estimated
09:34AM 61.2402 -2.4691 273° West  Level Estimated
09:35AM 61.2458 -2.7026 273° West  Level Estimated
09:36AM 61.2510 -2.9362 273° West  Level Estimated
09:37AM 61.2559 -3.1698 273° West  Level Estimated
09:38AM 61.2603 -3.4035 272° West  Level Estimated
09:39AM 61.2643 -3.6373 272° West  Level Estimated
09:40AM 61.2679 -3.8712 272° West  Level Estimated
09:41AM 61.2711 -4.1051 272° West  Level Estimated
09:42AM 61.2739 -4.3390 272° West  Level Estimated
09:43AM 61.2763 -4.5730 271° West  Level Estimated
09:44AM 61.2783 -4.8070 271° West  Level Estimated
09:45AM 61.2799 -5.0410 271° West  Level Estimated
09:46AM 61.2811 -5.2750 271° West  Level Estimated
09:47AM 61.2819 -5.5091 271° West  Level Estimated
09:48AM 61.2822 -5.7432 270° West  Level Estimated
09:49AM 61.2822 -5.9773 270° West  Level Estimated
09:50AM 61.2818 -6.2113 270° West  Level Estimated
09:51AM 61.2810 -6.4454 270° West  Level Estimated
09:52AM 61.2798 -6.6794 269° West  Level Estimated
09:53AM 61.2781 -6.9135 269° West  Level Estimated
09:54AM 61.2761 -7.1475 269° West  Level Estimated
09:55AM 61.2737 -7.3814 269° West  Level Estimated
09:56AM 61.2708 -7.6154 269° West  Level Estimated
09:57AM 61.2676 -7.8492 268° West  Level Estimated
09:58AM 61.2640 -8.0831 268° West  Level Estimated
09:59AM 61.2599 -8.3168 268° West  Level Estimated
10:00AM 61.2555 -8.5506 268° West  Level Estimated
10:01AM 61.2506 -8.7842 268° West  Level Estimated
10:02AM 61.2454 -9.0178 267° West  Level Estimated
10:03AM 61.2397 -9.2513 267° West  Level Estimated
10:04AM 61.2337 -9.4847 267° West  Level Estimated
10:05AM 61.2272 -9.7180 267° West  Level Estimated
10:06AM 61.2203 -9.9512 267° West  Level Estimated
10:07AM 61.2131 -10.1843 266° West  Level Estimated
10:08AM 61.2054 -10.4173 266° West  Level Estimated
10:09AM 61.1974 -10.6501 266° West  Level Estimated
10:10AM 61.1889 -10.8829 266° West  Level Estimated
10:11AM 61.1801 -11.1155 266° West  Level Estimated
10:12AM 61.1708 -11.3480 265° West  Level Estimated
10:13AM 61.1612 -11.5804 265° West  Level Estimated
10:14AM 61.1511 -11.8126 265° West  Level Estimated
10:15AM 61.1407 -12.0446 265° West  Level Estimated
10:16AM 61.1298 -12.2765 265° West  Level Estimated
10:17AM 61.1186 -12.5083 264° West  Level Estimated
10:18AM 61.1070 -12.7399 264° West  Level Estimated
10:19AM 61.0949 -12.9712 264° West  Level Estimated
10:20AM 61.0825 -13.2025 264° West  Level Estimated
10:21AM 61.0697 -13.4335 264° West  Level Estimated
10:22AM 61.0565 -13.6643 263° West  Level Estimated
10:23AM 61.0429 -13.8950 263° West  Level Estimated
10:24AM 61.0289 -14.1255 263° West  Level Estimated
10:25AM 61.0145 -14.3557 263° West  Level Estimated
10:26AM 60.9997 -14.5857 263° West  Level Estimated
10:27AM 60.9845 -14.8155 262° West  Level Estimated
10:28AM 60.9689 -15.0451 262° West  Level Estimated
10:29AM 60.9530 -15.2745 262° West  Level Estimated
10:30AM 60.9366 -15.5036 262° West  Level Estimated
10:31AM 60.9199 -15.7325 262° West  Level Estimated
10:32AM 60.9028 -15.9612 261° West  Level Estimated
10:33AM 60.8853 -16.1896 261° West  Level Estimated
10:34AM 60.8674 -16.4177 261° West  Level Estimated
10:35AM 60.8491 -16.6456 261° West  Level Estimated
10:36AM 60.8304 -16.8732 261° West  Level Estimated
10:37AM 60.8114 -17.1006 260° West  Level Estimated
10:38AM 60.7919 -17.3277 260° West  Level Estimated
10:39AM 60.7721 -17.5545 260° West  Level Estimated
10:40AM 60.7519 -17.7810 260° West  Level Estimated
10:41AM 60.7313 -18.0073 260° West  Level Estimated
10:42AM 60.7104 -18.2332 259° West  Level Estimated
10:43AM 60.6890 -18.4589 259° West  Level Estimated
10:44AM 60.6673 -18.6842 259° West  Level Estimated
10:45AM 60.6452 -18.9093 259° West  Level Estimated
10:46AM 60.6227 -19.1340 259° West  Level Estimated
10:47AM 60.5999 -19.3584 258° West  Level Estimated
10:48AM 60.5766 -19.5825 258° West  Level Estimated
10:49AM 60.5530 -19.8062 258° West  Level Estimated
10:50AM 60.5291 -20.0297 258° West  Level Estimated
10:51AM 60.5047 -20.2528 258° West  Level Estimated
10:52AM 60.4800 -20.4756 257° West  Level Estimated
10:53AM 60.4549 -20.6980 257° West  Level Estimated
10:54AM 60.4294 -20.9201 257° West  Level Estimated
10:55AM 60.4036 -21.1418 257° West  Level Estimated
10:56AM 60.3774 -21.3632 257° West  Level Estimated
10:57AM 60.3508 -21.5842 256° West  Level Estimated
10:58AM 60.3239 -21.8049 256° West  Level Estimated
10:59AM 60.2966 -22.0252 256° West  Level Estimated
11:00AM 60.2690 -22.2451 256° West  Level Estimated
11:01AM 60.2409 -22.4646 256° West  Level Estimated
11:02AM 60.2126 -22.6838 255° West  Level Estimated
11:03AM 60.1838 -22.9026 255° West  Level Estimated
11:04AM 60.1547 -23.1210 255° West  Level Estimated
11:05AM 60.1252 -23.3390 255° West  Level Estimated
11:06AM 60.0954 -23.5566 255° West  Level Estimated
11:07AM 60.0652 -23.7738 255° West  Level Estimated
11:08AM 60.0347 -23.9907 254° West  Level Estimated
11:09AM 60.0038 -24.2071 254° West  Level Estimated
11:10AM 59.9726 -24.4231 254° West  Level Estimated
11:11AM 59.9410 -24.6387 254° West  Level Estimated
11:12AM 59.9090 -24.8539 254° West  Level Estimated
11:13AM 59.8767 -25.0687 253° West  Level Estimated
11:14AM 59.8441 -25.2830 253° West  Level Estimated
11:15AM 59.8111 -25.4970 253° West  Level Estimated
11:16AM 59.7778 -25.7105 253° West  Level Estimated
11:17AM 59.7441 -25.9236 253° West  Level Estimated
11:18AM 59.7101 -26.1362 252° West  Level Estimated
11:19AM 59.6757 -26.3484 252° West  Level Estimated
11:20AM 59.6410 -26.5602 252° West  Level Estimated
11:21AM 59.6059 -26.7715 252° West  Level Estimated
11:22AM 59.5705 -26.9825 252° West  Level Estimated
11:23AM 59.5348 -27.1929 252° West  Level Estimated
11:24AM 59.4987 -27.4029 251° West  Level Estimated
11:25AM 59.4623 -27.6125 251° West  Level Estimated
11:26AM 59.4256 -27.8216 251° West  Level Estimated
11:27AM 59.3885 -28.0302 251° West  Level Estimated
11:28AM 59.3511 -28.2384 251° West  Level Estimated
11:29AM 59.3134 -28.4461 250° West  Level Estimated
11:30AM 59.2753 -28.6534 250° West  Level Estimated
11:31AM 59.2369 -28.8602 250° West  Level Estimated
11:32AM 59.1982 -29.0665 250° West  Level Estimated
11:33AM 59.1591 -29.2724 250° West  Level Estimated
11:34AM 59.1198 -29.4778 250° West  Level Estimated
11:35AM 59.0801 -29.6827 249° West  Level Estimated
11:36AM 59.0401 -29.8872 249° West  Level Estimated
11:37AM 58.9997 -30.0911 249° West  Level Estimated
11:38AM 58.9591 -30.2946 249° West  Level Estimated
11:39AM 58.9181 -30.4976 249° West  Level Estimated
11:40AM 58.8768 -30.7001 249° West  Level Estimated
11:41AM 58.8352 -30.9022 248° West  Level Estimated
11:42AM 58.7933 -31.1037 248° West  Level Estimated
11:43AM 58.7510 -31.3048 248° West  Level Estimated
11:44AM 58.7085 -31.5054 248° West  Level Estimated
11:45AM 58.6656 -31.7055 248° West  Level Estimated
11:46AM 58.6224 -31.9051 248° West  Level Estimated
11:47AM 58.5790 -32.1041 247° West  Level Estimated
11:48AM 58.5352 -32.3027 247° West  Level Estimated
11:49AM 58.4911 -32.5008 247° West  Level Estimated
11:50AM 58.4467 -32.6984 247° West  Level Estimated
11:51AM 58.4020 -32.8955 247° West  Level Estimated
11:52AM 58.3570 -33.0922 246° West  Level Estimated
11:53AM 58.3117 -33.2883 246° West  Level Estimated
11:54AM 58.2661 -33.4839 246° West  Level Estimated
11:55AM 58.2202 -33.6790 246° West  Level Estimated
11:56AM 58.1740 -33.8735 246° West  Level Estimated
11:57AM 58.1275 -34.0676 246° West  Level Estimated
11:58AM 58.0807 -34.2612 246° West  Level Estimated
11:59AM 58.0336 -34.4543 245° Southwest  Level Estimated
12:00PM 57.9863 -34.6468 245° Southwest  Level Estimated
12:01PM 57.9386 -34.8389 245° Southwest  Level Estimated
12:02PM 57.8907 -35.0304 245° Southwest  Level Estimated
12:03PM 57.8424 -35.2214 245° Southwest  Level Estimated
12:04PM 57.7939 -35.4119 245° Southwest  Level Estimated
12:05PM 57.7451 -35.6019 244° Southwest  Level Estimated
12:06PM 57.6960 -35.7914 244° Southwest  Level Estimated
12:07PM 57.6466 -35.9804 244° Southwest  Level Estimated
12:08PM 57.5970 -36.1688 244° Southwest  Level Estimated
12:09PM 57.5470 -36.3568 244° Southwest  Level Estimated
12:10PM 57.4968 -36.5442 244° Southwest  Level Estimated
12:11PM 57.4463 -36.7311 243° Southwest  Level Estimated
12:12PM 57.3956 -36.9175 243° Southwest  Level Estimated
12:13PM 57.3445 -37.1034 243° Southwest  Level Estimated
12:14PM 57.2932 -37.2887 243° Southwest  Level Estimated
12:15PM 57.2416 -37.4736 243° Southwest  Level Estimated
12:16PM 57.1898 -37.6579 243° Southwest  Level Estimated
12:17PM 57.1377 -37.8417 242° Southwest  Level Estimated
12:18PM 57.0853 -38.0250 242° Southwest  Level Estimated
12:19PM 57.0326 -38.2078 242° Southwest  Level Estimated
12:20PM 56.9797 -38.3900 242° Southwest  Level Estimated
12:21PM 56.9265 -38.5717 242° Southwest  Level Estimated
12:22PM 56.8731 -38.7529 242° Southwest  Level Estimated
12:23PM 56.8193 -38.9336 242° Southwest  Level Estimated
12:24PM 56.7654 -39.1138 241° Southwest  Level Estimated
12:25PM 56.7111 -39.2935 241° Southwest  Level Estimated
12:26PM 56.6566 -39.4726 241° Southwest  Level Estimated
12:27PM 56.6019 -39.6512 241° Southwest  Level Estimated
12:28PM 56.5469 -39.8293 241° Southwest  Level Estimated
12:29PM 56.4916 -40.0069 241° Southwest  Level Estimated
12:30PM 56.4361 -40.1840 241° Southwest  Level Estimated
12:31PM 56.3804 -40.3605 240° Southwest  Level Estimated
12:32PM 56.3244 -40.5365 240° Southwest  Level Estimated
12:33PM 56.2681 -40.7121 240° Southwest  Level Estimated
12:34PM 56.2116 -40.8871 240° Southwest  Level Estimated
12:35PM 56.1548 -41.0615 240° Southwest  Level Estimated
12:36PM 56.0979 -41.2355 240° Southwest  Level Estimated
12:37PM 56.0406 -41.4089 239° Southwest  Level Estimated
12:38PM 55.9831 -41.5819 239° Southwest  Level Estimated
12:39PM 55.9254 -41.7543 239° Southwest  Level Estimated
12:40PM 55.8674 -41.9262 239° Southwest  Level Estimated
12:41PM 55.8092 -42.0976 239° Southwest  Level Estimated
12:42PM 55.7508 -42.2685 239° Southwest  Level Estimated
12:42PM 63.1333 -55.0167 238° Southwest 360 414 37,000  Level Gander Center
12:43PM 55.6921 -42.4388 239° Southwest  Level Estimated
12:43PM 63.0833 -55.2500 245° Southwest 450 518 37,000  Level Gander Center
12:44PM 63.0167 -55.5167 246° West 460 529 37,000  Level Gander Center
12:45PM 55.5741 -42.7780 238° Southwest  Level Estimated
12:45PM 63.0016 -55.6478 246° West  Level FlightAware Approximate
12:45PM 62.9833 -55.7667 254° West 460 529 37,000  Level Gander Center
12:46PM 55.5147 -42.9469 238° Southwest  Level Estimated
12:46PM 62.9333 -56.0000 245° Southwest 460 529 37,000  Level Gander Center
12:47PM 55.4530 -43.1211 238° Southwest  Level Estimated
12:47PM 62.8667 -56.2667 241° Southwest 460 529 37,000  Level Gander Center
12:48PM 62.8167 -56.5333 248° West 460 529 37,000  Level Gander Center
12:49PM 62.7667 -56.7833 246° West 460 529 37,000  Level Gander Center
12:51PM 62.6167 -57.3500 240° Southwest 470 541 37,000  Level Gander Center
12:52PM 62.5500 -57.5833 238° Southwest 460 529 37,000  Level Gander Center
12:53PM 62.4833 -57.8333 240° Southwest 470 541 37,000  Level Gander Center
12:54PM 62.4500 -57.9833 244° Southwest 470 541 37,000  Level Gander Center
12:55PM 62.3833 -58.2000 236° Southwest 470 541 37,000  Level Gander Center
12:56PM 62.3167 -58.4667 242° Southwest 460 529 37,000  Level Gander Center
12:57PM 62.2000 -58.7167 225° Southwest 460 529 37,000  Level Montreal Center
12:58PM 62.1500 -58.9333 244° Southwest 460 529 37,000  Level Montreal Center
12:59PM 62.0667 -59.2000 236° Southwest 460 529 37,000  Level Montreal Center
01:00PM 62.0333 -59.4000 251° West 450 518 37,000  Level Montreal Center
01:01PM 61.9333 -59.6333 228° Southwest 460 529 37,000  Level Montreal Center
01:02PM 61.8667 -59.8500 237° Southwest 460 529 37,000  Level Montreal Center
01:03PM 61.8333 -60.0500 251° West 460 529 37,000  Level Gander Center
01:04PM 61.7500 -60.3000 235° Southwest 460 529 37,000  Level Gander Center
01:05PM 61.7000 -60.5167 244° Southwest 460 529 37,000  Level Gander Center
01:06PM 61.6333 -60.7167 235° Southwest 460 529 37,000  Level Gander Center
01:07PM 61.5667 -60.9667 241° Southwest 460 529 37,000  Level Gander Center
01:08PM 61.4833 -61.1833 231° Southwest 460 529 37,000  Level Gander Center
01:09PM 61.4167 -61.3833 235° Southwest 460 529 37,000  Level Gander Center
01:10PM 61.3000 -61.6667 229° Southwest 460 529 37,000  Level Montreal Center
01:11PM 61.2333 -61.8667 235° Southwest 460 529 37,000  Level Montreal Center
01:12PM 61.1500 -62.0833 231° Southwest 460 529 37,000  Level Montreal Center
01:13PM 61.1167 -62.3167 254° West 470 541 37,000  Level Gander Center
01:14PM 61.0500 -62.5167 236° Southwest 470 541 37,000  Level Gander Center
01:15PM 60.9500 -62.7500 229° Southwest 470 541 37,000  Level Gander Center
01:16PM 60.8833 -62.9833 240° Southwest 490 564 37,000  Level Gander Center
01:17PM 60.8000 -63.2167 234° Southwest 460 529 37,000  Level Gander Center
01:18PM 60.7333 -63.4167 236° Southwest 470 541 37,000  Level Gander Center
01:19PM 60.6667 -63.6500 240° Southwest 470 541 37,000  Level Gander Center
01:20PM 60.6000 -63.8500 236° Southwest 460 529 37,000  Level Gander Center
01:21PM 60.5000 -64.0500 225° Southwest 460 529 37,000  Level Gander Center
01:22PM 60.4333 -64.2833 240° Southwest 460 529 37,000  Level Gander Center
01:23PM 60.3667 -64.4833 236° Southwest 470 541 37,000  Level Gander Center
01:24PM 60.2833 -64.6667 228° Southwest 470 541 37,000  Level Gander Center
01:25PM 60.2000 -64.9000 234° Southwest 460 529 37,000  Level Gander Center
01:26PM 60.1333 -65.0833 234° Southwest 460 529 37,000  Level Gander Center
01:27PM 60.0500 -65.2833 230° Southwest 460 529 37,000  Level Gander Center
01:28PM 59.9333 -65.4333 213° Southwest 460 529 37,000  Level Gander Center
01:29PM 59.8333 -65.6167 223° Southwest 470 541 37,000  Level Gander Center
01:30PM 59.7500 -65.8000 228° Southwest 460 529 37,000  Level Gander Center
01:31PM 59.6500 -65.9667 220° Southwest 460 529 37,000  Level Gander Center
01:32PM 59.5500 -66.1167 217° Southwest 460 529 37,000  Level Gander Center
01:33PM 59.4667 -66.3000 228° Southwest 460 529 37,000  Level Gander Center
01:34PM 59.3500 -66.4500 213° Southwest 460 529 37,000  Level Gander Center
01:35PM 59.2667 -66.6000 223° Southwest 460 529 37,000  Level Gander Center
01:36PM 59.1500 -66.7667 216° Southwest 460 529 37,000  Level Gander Center
01:37PM 59.0667 -66.9167 223° Southwest 460 529 37,000  Level Gander Center
01:38PM 58.9667 -67.1000 223° Southwest 460 529 37,000  Level Gander Center
01:39PM 58.8667 -67.2500 218° Southwest 460 529 37,000  Level Gander Center
01:40PM 58.7500 -67.4000 214° Southwest 460 529 37,000  Level Montreal Center
01:41PM 58.6333 -67.5500 214° Southwest 450 518 37,000  Level Montreal Center
01:42PM 58.5667 -67.7167 233° Southwest 460 529 37,000  Level Gander Center
01:43PM 58.4667 -67.8833 221° Southwest 460 529 37,000  Level Gander Center
01:44PM 58.3667 -68.0167 215° Southwest 460 529 37,000  Level Gander Center
01:45PM 58.2667 -68.2000 224° Southwest 460 529 37,000  Level Gander Center
01:46PM 58.1667 -68.3333 215° Southwest 470 541 37,000 300 Level Gander Center
01:47PM 58.0833 -68.4167 208° Southwest 500 575 37,600 480 Climbing Montreal Center
01:48PM 57.9667 -68.5667 214° Southwest 470 541 38,000 180 Climbing Montreal Center
01:49PM 57.8833 -68.7167 224° Southwest 460 529 38,000  Level Montreal Center
01:50PM 57.7667 -68.8333 208° Southwest 450 518 38,000  Level Montreal Center
01:51PM 57.6833 -68.9667 221° Southwest 450 518 38,000  Level Montreal Center
01:52PM 57.5667 -69.1167 215° Southwest 450 518 38,000  Level Montreal Center
01:53PM 57.4667 -69.2667 219° Southwest 450 518 38,000  Level Montreal Center
01:54PM 57.3833 -69.4000 221° Southwest 450 518 38,000  Level Montreal Center
01:55PM 57.2667 -69.5167 208° Southwest 450 518 38,000  Level Montreal Center
01:56PM 57.1667 -69.6500 216° Southwest 450 518 38,000  Level Montreal Center
01:57PM 57.0667 -69.8000 219° Southwest 450 518 38,000  Level Montreal Center
01:58PM 56.9667 -69.9333 216° Southwest 450 518 38,000  Level Montreal Center
01:59PM 56.8500 -70.0500 209° Southwest 450 518 38,000  Level Montreal Center
02:00PM 56.7667 -70.1833 221° Southwest 450 518 38,000  Level Montreal Center
02:01PM 56.6500 -70.3333 215° Southwest 450 518 38,000  Level Montreal Center
02:02PM 56.5333 -70.4667 212° Southwest 450 518 38,000  Level Montreal Center
02:03PM 56.4333 -70.6000 216° Southwest 450 518 38,000  Level Montreal Center
02:04PM 56.3333 -70.7000 209° Southwest 450 518 38,000  Level Montreal Center
02:05PM 56.2333 -70.8500 220° Southwest 450 518 38,000  Level Montreal Center
02:06PM 56.1167 -70.9833 213° Southwest 450 518 38,000  Level Montreal Center
02:07PM 56.0167 -71.0833 209° Southwest 450 518 38,000  Level Montreal Center
02:08PM 55.9167 -71.2167 217° Southwest 450 518 38,000  Level Montreal Center
02:09PM 55.8167 -71.3500 217° Southwest 450 518 38,000  Level Montreal Center
02:10PM 55.7167 -71.4500 209° Southwest 450 518 38,000  Level Montreal Center
02:11PM 55.6000 -71.5833 213° Southwest 450 518 38,000  Level Montreal Center
02:12PM 55.5000 -71.7167 217° Southwest 450 518 38,000  Level Montreal Center
02:13PM 55.3833 -71.8333 210° Southwest 450 518 38,000  Level Montreal Center
02:14PM 55.2833 -71.9667 217° Southwest 450 518 38,000  Level Montreal Center
02:15PM 55.1833 -72.0667 210° Southwest 450 518 38,000  Level Montreal Center
02:16PM 55.0667 -72.2000 213° Southwest 450 518 38,000  Level Montreal Center
02:17PM 54.9667 -72.3167 214° Southwest 450 518 38,000  Level Montreal Center
02:18PM 54.8500 -72.4500 213° Southwest 450 518 38,000  Level Montreal Center
02:19PM 54.7500 -72.5833 218° Southwest 450 518 38,000  Level Montreal Center
02:20PM 54.6500 -72.6667 206° Southwest 450 518 38,000  Level Montreal Center
02:21PM 54.5500 -72.8000 218° Southwest 450 518 38,000  Level Montreal Center
02:22PM 54.4333 -72.9167 210° Southwest 450 518 38,000  Level Montreal Center
02:23PM 54.3333 -73.0167 210° Southwest 450 518 38,000  Level Montreal Center
02:24PM 54.2333 -73.1333 214° Southwest 450 518 38,000  Level Montreal Center
02:25PM 54.1167 -73.2667 214° Southwest 450 518 38,000  Level Montreal Center
02:26PM 54.0000 -73.3833 210° Southwest 450 518 38,000  Level Montreal Center
02:27PM 53.9000 -73.5000 215° Southwest 450 518 38,000  Level Montreal Center
02:28PM 53.7833 -73.6000 207° Southwest 450 518 38,000  Level Montreal Center
02:29PM 53.6833 -73.7167 215° Southwest 450 518 38,000  Level Montreal Center
02:30PM 53.5667 -73.8167 207° Southwest 450 518 38,000  Level Montreal Center
02:31PM 53.4500 -73.9000 203° Southwest 450 518 38,000  Level Montreal Center
02:32PM 53.3333 -73.9833 203° Southwest 450 518 38,000  Level Montreal Center
02:33PM 53.2333 -74.1000 215° Southwest 450 518 38,000  Level Montreal Center
02:34PM 53.1167 -74.2000 207° Southwest 450 518 38,000  Level Montreal Center
02:35PM 53.0000 -74.2833 203° Southwest 450 518 38,000  Level Montreal Center
02:36PM 52.8833 -74.3667 203° Southwest 450 518 38,000  Level Montreal Center
02:37PM 52.7667 -74.4667 207° Southwest 450 518 38,000  Level Montreal Center
02:38PM 52.6667 -74.5833 215° Southwest 450 518 38,000  Level Montreal Center
02:39PM 52.5500 -74.6667 203° Southwest 460 529 38,000  Level Montreal Center
02:40PM 52.4167 -74.7500 201° Southwest 450 518 38,000  Level Montreal Center
02:41PM 52.3167 -74.8333 207° Southwest 450 518 38,000  Level Montreal Center
02:42PM 52.2000 -74.9167 204° Southwest 450 518 38,000  Level Montreal Center
02:43PM 52.0833 -75.0000 204° Southwest 440 506 38,000  Level Montreal Center
02:44PM 51.9667 -75.1167 212° Southwest 460 529 38,000  Level Montreal Center
02:45PM 51.8500 -75.2000 204° Southwest 450 518 38,000  Level Montreal Center
02:46PM 51.7500 -75.2833 207° Southwest 450 518 38,000  Level Montreal Center
02:47PM 51.6333 -75.3667 204° Southwest 450 518 38,000  Level Montreal Center
02:48PM 51.5167 -75.4500 204° Southwest 460 529 38,000  Level Montreal Center
02:49PM 51.4000 -75.5667 212° Southwest 450 518 38,000  Level Montreal Center
02:50PM 51.2833 -75.6500 204° Southwest 450 518 38,000  Level Montreal Center
02:51PM 51.1667 -75.7167 200° South 450 518 38,000  Level Montreal Center
02:52PM 51.0500 -75.8000 204° Southwest 450 518 38,000  Level Montreal Center
02:53PM 50.9333 -75.8833 204° Southwest 460 529 38,000  Level Montreal Center
02:54PM 50.8333 -76.0000 216° Southwest 460 529 38,000  Level Montreal Center
02:55PM 50.7000 -76.0667 198° South 460 529 38,000  Level Montreal Center
02:56PM 50.6000 -76.1500 208° Southwest 460 529 38,000  Level Montreal Center
02:57PM 50.4833 -76.2333 204° Southwest 460 529 38,000  Level Montreal Center
02:58PM 50.3667 -76.3000 200° South 460 529 38,000  Level Montreal Center
02:59PM 50.2500 -76.4167 213° Southwest 460 529 38,000  Level Montreal Center
03:00PM 50.1333 -76.4833 200° South 460 529 38,000  Level Montreal Center
03:01PM 50.0000 -76.5667 202° Southwest 460 529 38,000  Level Montreal Center
03:02PM 49.8833 -76.6500 205° Southwest 460 529 38,000  Level Montreal Center
03:03PM 49.7667 -76.7500 209° Southwest 460 529 38,000  Level Montreal Center
03:04PM 49.6500 -76.8167 200° South 460 529 38,000  Level Montreal Center
03:05PM 49.5500 -76.9000 208° Southwest 450 518 38,000  Level Montreal Center
03:06PM 49.4333 -76.9667 200° South 470 541 38,000  Level Montreal Center
03:07PM 49.3000 -77.0500 202° Southwest 470 541 38,000  Level Montreal Center
03:08PM 49.2000 -77.1500 213° Southwest 450 518 38,000  Level Montreal Center
03:09PM 49.0833 -77.2167 201° Southwest 460 529 38,000  Level Montreal Center
03:10PM 48.9667 -77.3000 205° Southwest 460 529 38,000  Level Montreal Center
03:11PM 48.8333 -77.3667 198° South 460 529 38,000  Level Montreal Center
03:12PM 48.7167 -77.4667 209° Southwest 460 529 38,000  Level Montreal Center
03:13PM 48.6000 -77.5500 205° Southwest 460 529 38,000  Level Montreal Center
03:14PM 48.4833 -77.6167 201° Southwest 450 518 38,000  Level Montreal Center
03:15PM 48.3667 -77.6833 201° Southwest 450 518 38,000  Level Montreal Center
03:16PM 48.2500 -77.7833 210° Southwest 460 529 38,000  Level Montreal Center
03:17PM 48.1500 -77.8500 204° Southwest 460 529 38,000  Level Montreal Center
03:18PM 48.0333 -77.9333 206° Southwest 460 529 38,000  Level Montreal Center
03:19PM 47.8833 -78.0000 197° South 460 529 38,000  Level Montreal Center
03:20PM 47.7833 -78.0333 193° South 460 529 38,000  Level Montreal Center
03:21PM 47.6500 -78.1333 207° Southwest 460 529 38,000  Level Montreal Center
03:22PM 47.5333 -78.1833 196° South 460 529 38,000  Level Montreal Center
03:23PM 47.4167 -78.2667 206° Southwest 460 529 38,000  Level Montreal Center
03:24PM 47.3000 -78.3167 196° South 460 529 38,000  Level Montreal Center
03:25PM 47.1833 -78.3833 201° Southwest 460 529 38,000  Level Montreal Center
03:26PM 47.0500 -78.4833 207° Southwest 460 529 38,000  Level Montreal Center
03:27PM 46.9333 -78.5167 191° South 460 529 38,000  Level Montreal Center
03:33PM 46.2169 -78.9301 201° Southwest 465 535 38,000  Level FlightAware ADS-B (CYYZ)
03:33PM 46.1526 -78.9650 201° Southwest 466 536 38,000  Level FlightAware ADS-B (CYYZ)
03:34PM 46.0930 -78.9974 201° Southwest 466 536 38,000  Level FlightAware ADS-B (CYYZ)
03:35PM 45.9704 -79.0638 201° Southwest 466 536 38,000  Level FlightAware ADS-B (CYYZ)
03:35PM 45.9136 -79.0943 201° Southwest 468 539 38,000  Level FlightAware ADS-B (CYYZ)
03:36PM 45.8567 -79.1250 201° Southwest 468 539 38,000  Level FlightAware ADS-B (CYYZ)
03:36PM 45.7919 -79.1597 201° Southwest 469 540 38,000  Level FlightAware ADS-B (CYYZ)
03:37PM 45.7456 -79.1844 201° Southwest 470 541 38,000  Level FlightAware ADS-B (CYYZ)
03:37PM 45.6707 -79.2243 201° Southwest 469 540 38,000  Level FlightAware ADS-B (CYYZ)
03:38PM 45.6054 -79.2593 201° Southwest 469 540 38,000  Level FlightAware ADS-B (CYYZ)
03:38PM 45.5760 -79.2749 201° Southwest 468 539 38,000  Level FlightAware ADS-B (CYYZ)
03:39PM 45.4874 -79.3219 201° Southwest 468 539 38,000  Level FlightAware ADS-B (CYYZ)
03:39PM 45.4304 -79.3520 201° Southwest 468 539 38,000  Level FlightAware ADS-B (CYYZ)
03:40PM 45.3635 -79.3871 201° Southwest 468 539 38,000  Level FlightAware ADS-B (CYYZ)
03:40PM 45.3048 -79.4180 201° Southwest 468 539 38,000  Level FlightAware ADS-B (CYYZ)
03:41PM 45.2474 -79.4482 201° Southwest 469 540 38,000  Level FlightAware ADS-B (CYYZ)
03:41PM 45.2036 -79.4712 201° Southwest 470 541 38,000  Level FlightAware ADS-B (CYYZ)
03:42PM 45.1234 -79.5133 201° Southwest 471 542 38,000  Level FlightAware ADS-B (CYYZ)
03:42PM 45.0590 -79.5468 201° Southwest 472 543 38,000  Level FlightAware ADS-B (CYYZ)
03:43PM 45.0014 -79.5769 201° Southwest 472 543 38,000  Level FlightAware ADS-B (CYYZ)
03:44PM 44.8852 -79.6372 201° Southwest 470 541 38,000  Level FlightAware ADS-B (CYYZ)
03:45PM 44.7800 -79.6915 201° Southwest 471 542 38,000  Level FlightAware ADS-B (CYYZ)
03:45PM 44.7440 -79.7100 201° Southwest 468 539 38,000  Level FlightAware ADS-B (CYYZ)
03:46PM 44.6320 -79.7675 201° Southwest 465 535 38,000  Level FlightAware ADS-B (CYYZ)
03:46PM 44.5764 -79.8016 207° Southwest 464 534 38,000  Level FlightAware ADS-B (CYYZ)
03:47PM 44.5192 -79.8475 213° Southwest 461 531 38,000  Level FlightAware ADS-B (CYYZ)
03:47PM 44.4640 -79.8987 214° Southwest 461 531 38,000  Level FlightAware ADS-B (CYYZ)
03:48PM 44.4113 -79.9471 214° Southwest 463 533 38,000  Level FlightAware ADS-B (CYYZ)
03:48PM 44.3566 -79.9964 213° Southwest 463 533 38,000  Level FlightAware ADS-B (CYYZ)
03:49PM 44.3029 -80.0444 213° Southwest 463 533 38,000  Level FlightAware ADS-B (CYYZ)
03:49PM 44.2494 -80.0923 213° Southwest 462 532 38,000  Level FlightAware ADS-B (CYYZ)
03:50PM 44.1960 -80.1400 213° Southwest 463 533 38,000  Level FlightAware ADS-B (CYYZ)
03:50PM 44.1415 -80.1886 213° Southwest 464 534 38,000  Level FlightAware ADS-B (CYYZ)
03:51PM 44.0878 -80.2363 213° Southwest 463 533 38,000  Level FlightAware ADS-B (CYYZ)
03:51PM 44.0345 -80.2836 213° Southwest 464 534 38,000  Level FlightAware ADS-B (CYYZ)
03:52PM 43.9896 -80.3235 213° Southwest 462 532 38,000  Level FlightAware ADS-B (CYKF)
03:52PM 43.9800 -80.3320 213° Southwest 463 533 38,000  Level FlightAware ADS-B (CYYZ)
03:52PM 43.9261 -80.3796 213° Southwest 464 534 38,000  Level FlightAware ADS-B (CYYZ)
03:53PM 43.8710 -80.4281 213° Southwest 464 534 38,000  Level FlightAware ADS-B (CYYZ)
03:53PM 43.8235 -80.4697 213° Southwest 465 535 38,000  Level FlightAware ADS-B (CYYZ)
03:54PM 43.7782 -80.5094 213° Southwest 464 534 38,000  Level FlightAware ADS-B (CYYZ)
03:54PM 43.7158 -80.5640 213° Southwest 464 534 38,000  Level FlightAware ADS-B (CYYZ)
03:55PM 43.6680 -80.6057 213° Southwest 464 534 38,000  Level FlightAware ADS-B (CYYZ)
03:55PM 43.6310 -80.6380 213° Southwest 463 533 38,000  Level FlightAware ADS-B (CYYZ)
03:56PM 43.5484 -80.7100 213° Southwest 462 532 38,000  Level FlightAware ADS-B (CYYZ)
03:56PM 43.4951 -80.7563 213° Southwest 460 529 38,000  Level FlightAware ADS-B (CYYZ)
03:57PM 43.4431 -80.8014 213° Southwest 460 529 38,000  Level FlightAware ADS-B (CYYZ)
03:57PM 43.3847 -80.8519 213° Southwest 458 527 38,000  Level FlightAware ADS-B (CYYZ)
03:58PM 43.3328 -80.8966 213° Southwest 456 525 38,000  Level FlightAware ADS-B (CYYZ)
03:58PM 43.2776 -80.9439 213° Southwest 457 526 38,000  Level FlightAware ADS-B (CYYZ)
03:59PM 43.2242 -80.9898 213° Southwest 456 525 38,000  Level FlightAware ADS-B (CYYZ)
03:59PM 43.2391 -80.9770 212° Southwest 456 525 38,000  Level FlightAware ADS-B (CYKF)
03:59PM 43.1706 -81.0357 213° Southwest 454 522 38,000  Level FlightAware ADS-B (CYYZ)
04:00PM 43.1178 -81.0809 213° Southwest 452 520 38,000  Level FlightAware ADS-B (CYYZ)
04:00PM 43.0642 -81.1266 212° Southwest 452 520 38,000  Level FlightAware ADS-B (CYYZ)
04:01PM 43.0087 -81.1659 205° Southwest 458 527 38,000  Level FlightAware ADS-B (CYYZ)
04:01PM 42.9508 -81.2011 206° Southwest 456 525 38,000  Level FlightAware ADS-B (CYYZ)
04:02PM 42.8936 -81.2377 206° Southwest 456 525 38,000  Level FlightAware ADS-B (CYYZ)
04:02PM 42.8368 -81.2733 205° Southwest 458 527 38,000  Level FlightAware ADS-B (CYYZ)
04:03PM 42.7788 -81.3091 205° Southwest 460 529 38,000  Level FlightAware ADS-B (CYYZ)
04:03PM 42.7218 -81.3441 205° Southwest 461 531 38,000  Level FlightAware ADS-B (CYYZ)
04:04PM 42.6652 -81.3788 205° Southwest 461 531 38,000  Level FlightAware ADS-B (CYYZ)
04:04PM 42.6044 -81.4159 205° Southwest 461 531 38,000  Level FlightAware ADS-B (CYYZ)
04:05PM 42.5468 -81.4510 205° Southwest 462 532 38,000  Level FlightAware ADS-B (CYYZ)
04:05PM 42.4878 -81.4870 205° Southwest 463 533 38,000  Level FlightAware ADS-B (CYYZ)
04:06PM 42.4291 -81.5228 205° Southwest 465 535 38,000  Level FlightAware ADS-B (CYYZ)
04:06PM 42.4779 -81.4931 204° Southwest 464 534 38,000  Level FlightAware ADS-B (CYKF)
04:06PM 42.3706 -81.5584 205° Southwest 466 536 38,000  Level FlightAware ADS-B (CYYZ)
04:07PM 42.3119 -81.5939 205° Southwest 469 540 38,000  Level FlightAware ADS-B (CYYZ)
04:07PM 42.2525 -81.6298 205° Southwest 470 541 38,000  Level FlightAware ADS-B (CYYZ)
04:08PM 42.1930 -81.6657 205° Southwest 469 540 38,000  Level FlightAware ADS-B (CYYZ)
04:08PM 42.1332 -81.7019 205° Southwest 469 540 38,000  Level FlightAware ADS-B (CYYZ)
04:09PM 42.0750 -81.7368 205° Southwest 470 541 38,000  Level FlightAware ADS-B (CYYZ)
04:09PM 42.0140 -81.7733 205° Southwest 470 541 38,000  Level FlightAware ADS-B (CYYZ)
04:10PM 41.9558 -81.8082 205° Southwest 470 541 38,000  Level FlightAware ADS-B (CYYZ)
04:10PM 41.8964 -81.8437 205° Southwest 473 544 38,000  Level FlightAware ADS-B (CYYZ)
04:11PM 41.8362 -81.8797 205° Southwest 470 541 38,000  Level FlightAware ADS-B (CYYZ)
04:11PM 41.7771 -81.9147 204° Southwest 462 532 38,000  Level FlightAware ADS-B (CYYZ)
04:12PM 41.7257 -81.9452 205° Southwest 461 531 38,000  Level FlightAware ADS-B (CYYZ)
04:13PM 41.6344 -81.9994 204° Southwest 456 525 38,000  Level FlightAware ADS-B (CYYZ)
04:13PM 41.5492 -82.0496 204° Southwest 455 524 38,000  Level FlightAware ADS-B (CYYZ)
04:14PM 41.4879 -82.0859 204° Southwest 455 524 38,000  Level FlightAware ADS-B (CYYZ)
04:14PM 41.4304 -82.1196 204° Southwest 451 519 38,000  Level FlightAware ADS-B (CYYZ)
04:15PM 41.3817 -82.1479 202° Southwest 450 518 38,000  Level FlightAware ADS-B (CYYZ)
04:15PM 41.3331 -82.1699 195° South 455 524 38,000  Level FlightAware ADS-B (CYYZ)
04:16PM 41.2472 -82.2014 195° South 452 520 38,000  Level Indianapolis Center
04:17PM 41.1258 -82.2442 195° South 452 520 38,000  Level Indianapolis Center
04:18PM 41.0028 -82.2894 196° South 452 520 38,000  Level Indianapolis Center
04:19PM 40.8781 -82.3331 195° South 457 526 38,000  Level Indianapolis Center
04:20PM 40.7525 -82.3772 195° South 460 529 38,000  Level Indianapolis Center
04:21PM 40.6272 -82.4219 195° South 460 529 38,000  Level Indianapolis Center
04:26PM 39.9096 -82.6048 183° South 484 557 38,000  Level FlightAware ADS-B (KPMH)
04:27PM 39.8341 -82.6101 183° South 486 559 38,000  Level FlightAware ADS-B (KPMH)
04:27PM 39.7652 -82.6147 183° South 487 560 38,000  Level FlightAware ADS-B (KPMH)
04:28PM 39.6800 -82.6205 183° South 485 558 38,000  Level FlightAware ADS-B (KPMH)
04:29PM 39.6065 -82.6254 183° South 484 557 38,000  Level FlightAware ADS-B (KPMH)
04:29PM 39.5203 -82.6313 183° South 484 557 38,000  Level FlightAware ADS-B (KPMH)
04:30PM 39.4503 -82.6360 183° South 485 558 38,000  Level FlightAware ADS-B (KPMH)
04:30PM 39.3656 -82.6414 183° South 482 555 38,000  Level FlightAware ADS-B (KPMH)
04:31PM 39.2951 -82.6460 183° South 479 551 38,000  Level FlightAware ADS-B (KPMH)
04:32PM 39.2089 -82.6519 183° South 472 543 38,000  Level FlightAware ADS-B (KPMH)
04:32PM 39.1431 -82.6564 183° South 470 541 38,000  Level FlightAware ADS-B (KPMH)
04:33PM 39.0773 -82.6608 183° South 471 542 38,000  Level FlightAware ADS-B (KPMH)
04:33PM 39.0114 -82.6651 183° South 472 543 38,000  Level FlightAware ADS-B (KPMH)
04:34PM 38.9588 -82.6686 183° South 473 544 38,000  Level FlightAware ADS-B (KPMH)
04:34PM 38.8779 -82.6739 183° South 473 544 38,000  Level FlightAware ADS-B (KPMH)
04:35PM 38.8124 -82.6781 183° South 472 543 38,000  Level FlightAware ADS-B (KPMH)
04:35PM 38.7319 -82.6833 183° South 472 543 38,000  Level FlightAware ADS-B (KPMH)
04:36PM 38.6648 -82.6877 183° South 468 539 38,000  Level FlightAware ADS-B (KPMH)
04:36PM 38.6037 -82.6918 183° South 467 537 38,000  Level FlightAware ADS-B (KPMH)
04:37PM 38.6037 -82.6918 183° South 470 541 38,000  Level FlightAware ADS-B (KPMH)
04:39PM 38.3094 -82.7111 183° South 469 540 38,000  Level Indianapolis Center
04:40PM 38.1786 -82.7200 183° South 469 540 38,000  Level Indianapolis Center
04:41PM 38.0481 -82.7275 183° South 469 540 38,000  Level Indianapolis Center
04:42PM 37.9181 -82.7367 183° South 469 540 38,000  Level Indianapolis Center
04:43PM 37.7861 -82.7456 183° South 469 540 38,000  Level Indianapolis Center
04:44PM 37.6600 -82.7725 190° South 465 535 38,000  Level Indianapolis Center
04:45PM 37.5303 -82.8475 205° Southwest 442 509 38,000  Level Indianapolis Center
04:46PM 37.4231 -82.9197 208° Southwest 440 506 38,000  Level Indianapolis Center
04:47PM 37.3169 -82.9892 208° Southwest 436 502 38,000  Level Indianapolis Center
04:48PM 37.2108 -83.0589 208° Southwest 435 501 38,000  Level Indianapolis Center
04:49PM 37.0869 -83.1397 208° Southwest 435 501 38,000  Level Indianapolis Center
04:50PM 36.9800 -83.2086 207° Southwest 435 501 38,000  Level Indianapolis Center
04:51PM 36.8725 -83.2775 207° Southwest 435 501 38,000  Level Indianapolis Center
04:52PM 36.7644 -83.3475 207° Southwest 435 501 38,000  Level Indianapolis Center
04:53PM 36.6208 -83.3892 193° South 457 526 38,000  Level Indianapolis Center
04:54PM 36.4969 -83.4186 191° South 457 526 38,000  Level Indianapolis Center
04:55PM 36.3731 -83.4472 191° South 456 525 38,000  Level Indianapolis Center
04:56PM 36.2511 -83.4764 191° South 451 519 38,000  Level Indianapolis Center
04:57PM 36.1031 -83.5094 190° South 448 516 38,000  Level Atlanta Center
05:02PM 35.4284 -83.6687 200° South 428 493 38,000  Level FlightAware ADS-B (KDZJ)
05:03PM 35.3703 -83.6941 200° South 431 496 38,000  Level FlightAware ADS-B (KDZJ)
05:03PM 35.3103 -83.7201 200° South 428 493 38,000  Level FlightAware ADS-B (KDZJ)
05:04PM 35.2190 -83.7597 200° South 426 490 38,000  Level FlightAware ADS-B (KDZJ)
05:05PM 35.1523 -83.7887 200° South 428 493 38,000  Level FlightAware ADS-B (KDZJ)
05:05PM 35.0795 -83.8203 200° South 429 494 38,000  Level FlightAware ADS-B (KDZJ)
05:06PM 34.9999 -83.8546 200° South 429 494 38,000  Level FlightAware ADS-B (KDZJ)
05:07PM 34.9218 -83.8882 200° South 426 490 38,000  Level FlightAware ADS-B (KDZJ)
05:07PM 34.8404 -83.9232 200° South 425 489 38,000  Level FlightAware ADS-B (KDZJ)
05:08PM 34.7704 -83.9531 200° South 424 488 38,000  Level FlightAware ADS-B (KDZJ)
05:09PM 34.6888 -83.9880 200° South 431 496 38,000  Level FlightAware ADS-B (KDZJ)
05:09PM 34.6160 -84.0191 200° South 426 490 38,000  Level FlightAware ADS-B (KDZJ)
05:10PM 34.5410 -84.0511 200° South 428 493 38,000  Level FlightAware ADS-B (KDZJ)
05:11PM 34.4797 -84.0773 200° South 428 493 38,000  Level FlightAware ADS-B (KDZJ)
05:11PM 34.3841 -84.1179 200° South 429 494 38,000  Level FlightAware ADS-B (KDZJ)
05:12PM 34.3080 -84.1501 200° South 429 494 38,000  Level FlightAware ADS-B (KDZJ)
05:13PM 34.2315 -84.1824 200° South 429 494 38,000  Level FlightAware ADS-B (KDZJ)
05:13PM 34.1540 -84.2152 200° South 428 493 38,000  Level FlightAware ADS-B (KDZJ)
05:14PM 34.0793 -84.2468 200° South 429 494 38,000  Level FlightAware ADS-B (KDZJ)
05:15PM 34.0026 -84.2789 200° South 430 495 38,000 -540 Level FlightAware ADS-B (KDZJ)
05:16PM 33.9030 -84.3205 199° South 422 486 37,200 -480 Descending FlightAware ADS-B (KDZJ)
05:16PM 33.9192 -84.3142 199° South 442 509 37,300 -120 Climbing Atlanta Center
05:17PM 33.8042 -84.3614 199° South 442 509 37,000 -180 Descending Atlanta Center
05:18PM 33.6936 -84.4083 199° South 432 497 37,000  Level Atlanta Center
05:19PM 33.5767 -84.4353 191° South 427 491 37,000  Level Atlanta Center
05:20PM 33.4514 -84.4347 180° South 444 511 37,000  Level Atlanta Center
05:21PM 33.3239 -84.4342 180° South 455 524 37,000  Level Atlanta Center
05:22PM 33.1986 -84.4311 179° South 455 524 37,000  Level Atlanta Center
05:23PM 33.0714 -84.4306 180° South 455 524 37,000  Level Atlanta Center
05:24PM 32.9442 -84.4275 179° South 461 531 37,000  Level Atlanta Center
05:25PM 32.8042 -84.4269 180° South 461 531 37,000  Level Atlanta Center
05:26PM 32.6792 -84.4189 177° South 456 525 37,000  Level Atlanta Center
05:27PM 32.5475 -84.4158 179° South 456 525 37,000  Level Atlanta Center
05:28PM 32.4222 -84.4128 179° South 461 531 37,000  Level Atlanta Center
05:29PM 32.2950 -84.4100 179° South 461 531 37,000  Level Atlanta Center
05:30PM 32.1678 -84.4069 179° South 461 531 37,000  Level Atlanta Center
05:31PM 32.0425 -84.4064 180° South 456 525 37,000  Level Atlanta Center
05:32PM 31.9069 -84.4025 179° South 459 528 37,000  Level Jacksonville Center
05:33PM 31.7964 -84.4008 179° South 449 517 37,000  Level Jacksonville Center
05:39PM 31.1237 -84.3849 179° South 442 509 37,000  Level FlightAware ADS-B (KTLH)
05:39PM 31.0321 -84.3831 179° South 441 507 37,000  Level FlightAware ADS-B (KTLH)
05:40PM 30.9627 -84.3817 179° South 442 509 37,000  Level FlightAware ADS-B (KTLH)
05:41PM 30.8244 -84.3792 179° South 444 511 37,000  Level FlightAware ADS-B (KTLH)
05:42PM 30.7363 -84.3775 179° South 445 512 37,000  Level FlightAware ADS-B (KTLH)
05:42PM 30.6499 -84.3686 172° South 464 534 37,000  Level FlightAware ADS-B (KTLH)
05:43PM 30.5850 -84.3538 167° South 476 548 37,000  Level FlightAware ADS-B (KTLH)
05:44PM 30.5073 -84.3271 160° South 495 570 37,000  Level FlightAware ADS-B (KTLH)
05:44PM 30.4062 -84.2752 151° Southeast 519 597 37,000  Level FlightAware ADS-B (KTLH)
05:45PM 30.3340 -84.2280 151° Southeast 522 601 37,000  Level FlightAware ADS-B (KTLH)
05:46PM 30.2278 -84.1589 151° Southeast 524 603 37,000  Level FlightAware ADS-B (KTLH)
05:46PM 30.1482 -84.1071 151° Southeast 525 604 37,000  Level FlightAware ADS-B (KTLH)
05:47PM 30.0801 -84.0627 151° Southeast 524 603 37,000  Level FlightAware ADS-B (KTLH)
05:48PM 30.0021 -84.0118 151° Southeast 520 598 37,000  Level FlightAware ADS-B (KTLH)
05:48PM 29.9330 -83.9671 151° Southeast 518 596 37,000  Level FlightAware ADS-B (KTLH)
05:49PM 29.8391 -83.9063 151° Southeast 518 596 37,000  Level FlightAware ADS-B (KTLH)
05:49PM 29.7847 -83.8736 151° Southeast 517 595 37,000  Level Jacksonville Center
05:50PM 29.6578 -83.7936 151° Southeast 517 595 37,000  Level Jacksonville Center
05:51PM 29.5331 -83.7114 150° Southeast 517 595 37,000  Level Jacksonville Center
05:52PM 29.4106 -83.6339 151° Southeast 512 589 37,000  Level Jacksonville Center
05:58PM 28.7175 -83.1903 151° Southeast 513 590 37,000  Level FlightAware ADS-B (KMCO)
06:01PM 28.3511 -82.9602 151° Southeast 514 592 37,000  Level FlightAware ADS-B (KMCO)
06:02PM 28.2148 -82.8751 151° Southeast 515 593 37,000  Level FlightAware ADS-B (KMCO)
06:04PM 28.0082 -82.7467 151° Southeast 517 595 37,000  Level FlightAware ADS-B (KMCO)
06:05PM 27.8197 -82.6264 149° Southeast 521 600 37,000  Level FlightAware ADS-B (KMCO)
06:06PM 27.7548 -82.5823 149° Southeast 520 598 37,000  Level FlightAware ADS-B (KMCO)
06:06PM 27.6714 -82.5265 149° Southeast 520 598 37,000  Level FlightAware ADS-B (KMCO)
06:07PM 27.6016 -82.4801 149° Southeast 522 601 37,000  Level FlightAware ADS-B (KMCO)
06:07PM 27.5273 -82.4376 161° South 501 577 37,000  Level FlightAware ADS-B (KMCO)
06:08PM 27.4636 -82.4258 178° South 454 522 37,000  Level FlightAware ADS-B (KMCO)
06:09PM 27.3600 -82.4286 181° South 445 512 37,000  Level FlightAware ADS-B (KMCO)
06:10PM 27.2561 -82.4313 181° South 446 513 37,000  Level FlightAware ADS-B (KMCO)
06:10PM 27.1720 -82.4336 182° South 447 514 37,000  Level FlightAware ADS-B (KMCO)
06:11PM 27.0866 -82.4361 181° South 449 517 37,000  Level FlightAware ADS-B (KMCO)
06:12PM 26.9337 -82.4402 181° South 450 518 37,000  Level FlightAware ADS-B (KMCO)
06:13PM 26.8567 -82.4424 181° South 450 518 37,000  Level FlightAware ADS-B (KMCO)
06:13PM 26.7744 -82.4446 181° South 452 520 37,000  Level FlightAware ADS-B (KMCO)
06:14PM 26.6965 -82.4467 181° South 453 521 37,000  Level FlightAware ADS-B (KMCO)
06:15PM 26.6255 -82.4486 181° South 452 520 37,000  Level FlightAware ADS-B (KMCO)
06:15PM 26.5436 -82.4508 181° South 453 521 37,000  Level FlightAware ADS-B (KMCO)
06:16PM 26.4638 -82.4530 181° South 454 522 37,000  Level FlightAware ADS-B (KMCO)
06:17PM 26.3536 -82.4560 182° South 455 524 37,000  Level FlightAware ADS-B (KMCO)
06:17PM 26.2897 -82.4578 181° South 456 525 37,000  Level FlightAware ADS-B (KMCO)
06:18PM 26.2433 -82.4591 181° South 457 526 37,000  Level FlightAware ADS-B (KMCO)
06:18PM 26.1411 -82.4618 181° South 457 526 37,000  Level FlightAware ADS-B (KMCO)
06:19PM 26.0340 -82.4647 181° South 455 524 37,000  Level FlightAware ADS-B (KMCO)
06:20PM 25.9526 -82.4667 181° South 454 522 37,000  Level FlightAware ADS-B (KMCO)
06:21PM 25.8700 -82.4690 182° South 453 521 37,000  Level FlightAware ADS-B (KMCO)
06:21PM 25.8043 -82.4710 182° South 454 522 37,000  Level FlightAware ADS-B (KMCO)
06:22PM 25.7390 -82.4728 181° South 456 525 37,000  Level FlightAware ADS-B (KMCO)
06:22PM 25.6536 -82.4749 181° South 458 527 37,000  Level FlightAware ADS-B (KMCO)
06:23PM 25.5911 -82.4766 181° South 459 528 37,000 -300 Level FlightAware ADS-B (KMCO)
06:24PM 25.4810 -82.4797 181° South 463 533 36,600 -720 Descending FlightAware ADS-B (KMCO)
06:25PM 25.3539 -82.4829 181° South 463 533 35,700 -960 Descending FlightAware ADS-B (KMCO)
06:26PM 25.1850 -82.4903 181° South 463 533 34,300 -720 Descending Miami Center
06:27PM 25.0553 -82.4933 181° South 463 533 34,000 -180 Descending Miami Center
06:28PM 24.9258 -82.4967 181° South 463 533 34,000 -420 Level Miami Center
06:29PM 24.7961 -82.5022 182° South 463 533 33,200 -1,140 Descending Miami Center
06:30PM 24.6686 -82.5056 181° South 463 533 31,800 -1,620 Descending Miami Center
06:31PM 24.5456 -82.5089 181° South 458 527 30,000 -1,800 Descending Miami Center
06:32PM 24.4222 -82.5125 182° South 453 521 28,200 -1,800 Descending Miami Center
06:33PM 24.3011 -82.5139 181° South 441 507 26,500 -1,740 Descending Miami Center
06:34PM 24.1903 -82.5181 182° South 429 494 24,800 -1,680 Descending Miami Center
06:35PM 24.0753 -82.5194 181° South 418 481 23,200 -1,740 Descending Miami Center
06:36PM 23.9644 -82.5236 182° South 407 468 21,400 -1,800 Descending Miami Center
06:38PM 23.8099 -82.4400 154° Southeast  Level FlightAware Approximate
06:45PM 22.9970 -82.4094 180° South  Level Estimated
06:46PM 22.9891 -82.4091 180° South  Level Estimated
06:47PM 22.9891 -82.4091 180° South  Level Estimated
06:48PM 22.9891 -82.4091 180° South  Level Estimated
06:49PM 22.9891 -82.4091 180° South  Level Estimated
06:50PM 22.9891 -82.4091 180° South  Level Estimated
06:51PM 22.9891 -82.4091 180° South  Level Estimated
06:52PM 22.9891 -82.4091 180° South  Level Estimated
06:53PM 22.9891 -82.4091 180° South  Level Estimated
06:54PM 22.9891 -82.4091 180° South  Level Estimated
06:55PM 22.9891 -82.4091 180° South  Level Estimated
06:56PM 22.9891 -82.4091 180° South  Level Estimated
06:57PM 22.9891 -82.4091 180° South  Level Estimated
06:58PM 22.9891 -82.4091 180° South  Level Estimated
06:59PM 22.9891 -82.4091 180° South  Level Estimated
07:00PM 22.9891 -82.4091 180° South  Level Estimated
07:01PM 22.9891 -82.4091 180° South  Level Estimated
07:02PM 22.9891 -82.4091 180° South  Level Estimated
07:03PM 22.9891 -82.4091 180° South  Level Estimated
07:04PM 22.9891 -82.4091 180° South  Level Estimated
07:05PM 22.9891 -82.4091 180° South  Level Estimated
07:06PM 22.9891 -82.4091 180° South  Level Estimated
07:07PM 22.9891 -82.4091 180° South  Level Estimated